METAR Data
IDs: Format: Raw Decoded Include TAF

Data at: 0621 UTC 07 Dec 2022

KAST 070555Z AUTO 00000KT 10SM OVC042 05/04 A3017 RMK AO2 SLP216 T00500044 10083 20039 50003
KAST 070455Z AUTO 09003KT 10SM OVC042 05/04 A3017 RMK AO2 SLP216 T00500039
KAST 070355Z AUTO 11003KT 10SM OVC040 04/03 A3017 RMK AO2 SLP215 T00440033
KAST 070255Z AUTO 14003KT 10SM FEW026 OVC046 04/03 A3016 RMK AO2 SLP213 T00390028 51006
KAST 070155Z AUTO 00000KT 10SM FEW024 04/03 A3016 RMK AO2 SLP212 T00440033
KAST 070055Z AUTO 00000KT 10SM FEW025 SCT050 06/04 A3015 RMK AO2 SLP210 T00610039
KAST 062355Z AUTO 00000KT 10SM OVC045 08/05 A3014 RMK AO2 SLP207 60000 T00830050 10094 20056 57001
KAST 062255Z AUTO 00000KT 10SM BKN050 08/04 A3014 RMK AO2 SLP207 T00830044
KAST 062155Z AUTO 02003KT 10SM BKN050 08/04 A3014 RMK AO2 SLP207 T00780044
KAST 062055Z AUTO 00000KT 10SM OVC055 09/06 A3015 RMK AO2 RAE26 SLP208 P0000 60000 T00890056 58001
KAST 061955Z AUTO 00000KT 9SM -RA FEW036 OVC050 07/05 A3016 RMK AO2 RAB53 SLP212 P0000 T00720050
KAST 061855Z AUTO 08003KT 7SM SCT038 OVC048 07/04 A3017 RMK AO2 SLP214 T00670044
KAST 061755Z AUTO 13003KT 6SM BR OVC039 06/04 A3015 RMK AO2 SLP209 T00560044 10061 20050 53013
KAST 061655Z AUTO 00000KT 4SM BR OVC038 06/04 A3013 RMK AO2 SLP203 T00560044
KAST 061555Z AUTO 00000KT 5SM BR OVC041 05/04 A3012 RMK AO2 SLP199 T00500039
KAST 061455Z AUTO 09003KT 5SM BR OVC042 05/04 A3011 RMK AO2 SLP196 T00500044 53006
KAST 061355Z AUTO 11003KT 5SM BR OVC043 05/04 A3010 RMK AO2 SLP193 T00500039
KAST 061255Z AUTO 00000KT 4SM BR OVC044 05/04 A3009 RMK AO2 SLP190 T00500039
KAST 061155Z AUTO 13003KT 5SM BR OVC045 05/04 A3009 RMK AO2 SLP190 T00500044 10056 20050 50007
KAST 061055Z AUTO 00000KT 5SM BR OVC042 06/04 A3010 RMK AO2 SLP191 T00560044
KAST 061032Z AUTO 12003KT 5SM BR FEW007 SCT015 OVC043 06/04 A3010 RMK AO2 T00560044
KAST 061018Z AUTO 00000KT 4SM BR SCT007 BKN014 OVC022 06/04 A3009 RMK AO2 T00560044
KAST 060955Z AUTO 00000KT 4SM BR OVC014 06/04 A3008 RMK AO2 SLP187 T00560044
KAST 060921Z AUTO 00000KT 5SM BR OVC013 06/05 A3008 RMK AO2 T00560050
KAST 060855Z AUTO 00000KT 5SM BR OVC016 05/04 A3007 RMK AO2 SLP183 T00500044 53003
KAST 060847Z AUTO 00000KT 4SM BR BKN017 OVC043 05/04 A3007 RMK AO2 T00500044
KAST 060755Z AUTO 00000KT 5SM BR BKN013 OVC041 06/05 A3007 RMK AO2 SLP181 T00560050 400940033
KAST 060655Z AUTO 00000KT 4SM BR BKN018 OVC043 05/04 A3006 RMK AO2 SLP179 T00500044
KAST 060652Z AUTO 00000KT 4SM BR BKN018 OVC043 05/04 A3006 RMK AO2
KAST 060555Z AUTO 12003KT 6SM BR FEW030 OVC046 06/04 A3006 RMK AO2 SLP177 T00560044 10078 20056 53014
KAST 060514Z AUTO 11003KT 8SM FEW027 BKN036 OVC043 06/04 A3004 RMK AO2 T00610044
KAST 060455Z AUTO 07006KT 5SM BR BKN028 OVC034 06/04 A3004 RMK AO2 SLP172 T00610044
KAST 060355Z AUTO 34006KT 9SM OVC027 07/04 A3003 RMK AO2 SLP167 T00670044
KAST 060342Z AUTO 34005KT 9SM BKN029 OVC036 07/05 A3002 RMK AO2 T00670050
KAST 060322Z AUTO 35005KT 10SM OVC030 07/05 A3002 RMK AO2 T00670050
KAST 060314Z AUTO 33005KT 9SM BKN029 OVC033 07/05 A3002 RMK AO2 T00670050
KAST 060307Z AUTO 33007KT 8SM SCT025 OVC033 07/05 A3002 RMK AO2 CIG 027 RWY 08 T00670050
KAST 060255Z AUTO 32004KT 9SM BKN027 OVC034 07/05 A3002 RMK AO2 SLP164 T00670050 51006
KAST 060155Z AUTO 30004KT 10SM OVC038 06/04 A3001 RMK AO2 SLP160 T00610044
KAST 060055Z AUTO 05003KT 10SM OVC035 07/04 A3000 RMK AO2 SLP158 T00720039
KAST 060009Z AUTO 00000KT 10SM SCT026 OVC041 08/05 A2999 RMK AO2 T00780050
KAST 052355Z AUTO 00000KT 10SM BKN026 OVC043 08/05 A2999 RMK AO2 SLP154 T00780050 10094 20044 53003
KAST 052255Z AUTO 00000KT 10SM OVC025 09/05 A2998 RMK AO2 SLP152 T00890050
KAST 052227Z AUTO 03004KT 10SM BKN023 OVC040 09/05 A2998 RMK AO2 T00940050
KAST 052155Z AUTO 36004KT 10SM FEW023 BKN042 09/05 A2998 RMK AO2 SLP151 T00890050
KAST 052055Z AUTO 06004KT 10SM FEW035 09/06 A2998 RMK AO2 SLP151 T00890056 58009
KAST 052016Z AUTO 07005KT 10SM SCT026 08/06 A2998 RMK AO2 T00780056
KAST 051955Z AUTO 06004KT 10SM OVC026 08/06 A2999 RMK AO2 SLP154 T00780056
KAST 051855Z AUTO 07006KT 10SM OVC026 06/04 A3000 RMK AO2 SLP157 T00610044
KAST 051840Z AUTO 05004KT 9SM FEW021 OVC029 06/04 A3000 RMK AO2 T00560044